createdAt,value
2023-10-20T00:00:16.390Z,8.67
2023-10-20T00:01:39.829Z,8.66
2023-10-20T00:02:43.622Z,8.64
2023-10-20T00:03:47.178Z,8.62
2023-10-20T00:04:51.524Z,8.62
2023-10-20T00:05:55.207Z,8.61
2023-10-20T00:07:00.076Z,8.60
2023-10-20T00:08:05.214Z,8.58
2023-10-20T00:09:09.712Z,8.56
2023-10-20T00:10:12.960Z,8.53
2023-10-20T00:11:16.840Z,8.51
2023-10-20T00:12:21.049Z,8.49
2023-10-20T00:13:25.857Z,8.46
2023-10-20T00:14:30.239Z,8.45
2023-10-20T00:15:35.196Z,8.44
2023-10-20T00:16:39.600Z,8.44
2023-10-20T00:17:43.798Z,8.44
2023-10-20T00:18:47.573Z,8.43
2023-10-20T00:19:51.869Z,8.42
2023-10-20T00:20:55.387Z,8.40
2023-10-20T00:21:59.005Z,8.41
2023-10-20T00:23:02.739Z,8.39
2023-10-20T00:24:08.872Z,8.39
2023-10-20T00:25:12.620Z,8.39
2023-10-20T00:26:16.030Z,8.40
2023-10-20T00:27:19.632Z,8.41
2023-10-20T00:28:23.057Z,8.41
2023-10-20T00:29:26.554Z,8.42
2023-10-20T00:30:30.534Z,8.42
2023-10-20T00:31:34.057Z,8.43
2023-10-20T00:32:42.817Z,8.44
2023-10-20T00:33:50.777Z,8.45
2023-10-20T00:34:54.466Z,8.44
2023-10-20T00:35:57.695Z,8.46
2023-10-20T00:37:02.012Z,8.47
2023-10-20T00:38:07.001Z,8.48
2023-10-20T00:39:10.560Z,8.49
2023-10-20T00:40:16.302Z,8.49
2023-10-20T00:41:19.883Z,8.50
2023-10-20T00:42:23.869Z,8.51
2023-10-20T00:43:35.922Z,8.52
2023-10-20T00:44:39.890Z,8.53
2023-10-20T00:45:46.284Z,8.53
2023-10-20T00:46:50.205Z,8.52
2023-10-20T00:47:54.026Z,8.56
2023-10-20T00:48:58.990Z,8.58
2023-10-20T00:50:05.183Z,8.59
2023-10-20T00:51:10.653Z,8.60
2023-10-20T00:52:15.357Z,8.62
2023-10-20T00:53:19.665Z,8.64
2023-10-20T00:54:23.198Z,8.66
2023-10-20T00:55:27.411Z,8.67
2023-10-20T00:56:33.008Z,8.68
2023-10-20T00:57:37.430Z,8.69
2023-10-20T00:58:42.090Z,8.69
2023-10-20T00:59:45.641Z,8.70
2023-10-20T01:00:48.851Z,8.71
2023-10-20T01:01:52.858Z,8.71
2023-10-20T01:02:56.825Z,8.72
2023-10-20T01:04:00.845Z,8.73
2023-10-20T01:05:06.345Z,8.74
2023-10-20T01:06:11.475Z,8.76
2023-10-20T01:07:16.113Z,8.78
2023-10-20T01:08:20.093Z,8.80
2023-10-20T01:09:28.239Z,8.80
2023-10-20T01:10:31.632Z,8.81
2023-10-20T01:11:34.999Z,8.81
2023-10-20T01:12:38.449Z,8.82
2023-10-20T01:13:42.018Z,8.82
2023-10-20T01:14:45.238Z,8.82
2023-10-20T01:15:49.508Z,8.82
2023-10-20T01:16:52.956Z,8.82
2023-10-20T01:17:56.454Z,8.82
2023-10-20T01:19:01.837Z,8.83
2023-10-20T01:20:08.400Z,8.84
2023-10-20T01:21:12.028Z,8.84
2023-10-20T01:22:15.476Z,8.85
2023-10-20T01:23:19.161Z,8.86
2023-10-20T01:24:22.927Z,8.86
2023-10-20T01:25:27.506Z,8.85
2023-10-20T01:26:30.849Z,8.84
2023-10-20T01:27:34.590Z,8.81
2023-10-20T01:28:38.469Z,8.80
2023-10-20T01:29:41.980Z,8.78
2023-10-20T01:30:45.806Z,8.76
2023-10-20T01:31:49.178Z,8.75
2023-10-20T01:32:52.724Z,8.72
2023-10-20T01:33:56.577Z,8.71
2023-10-20T01:35:00.949Z,8.69
2023-10-20T01:36:06.081Z,8.67
2023-10-20T01:37:12.662Z,8.65
2023-10-20T01:38:16.612Z,8.62
2023-10-20T01:39:20.344Z,8.61
2023-10-20T01:40:24.253Z,8.60
2023-10-20T01:41:28.459Z,8.58
2023-10-20T01:42:31.932Z,8.58
2023-10-20T01:43:35.444Z,8.57
2023-10-20T01:44:38.784Z,8.57
2023-10-20T01:45:42.102Z,8.55
2023-10-20T01:46:50.158Z,8.55
2023-10-20T01:47:54.820Z,8.52
2023-10-20T01:48:58.415Z,8.51
2023-10-20T01:50:04.734Z,8.49
2023-10-20T01:51:08.490Z,8.48
2023-10-20T01:52:12.283Z,8.48
2023-10-20T01:53:15.643Z,8.46
2023-10-20T01:54:18.831Z,8.45
2023-10-20T01:55:23.046Z,8.45
2023-10-20T01:56:26.616Z,8.44
2023-10-20T01:57:30.456Z,8.44
2023-10-20T01:58:34.311Z,8.42
2023-10-20T01:59:37.820Z,8.41
2023-10-20T02:00:41.444Z,8.40
2023-10-20T02:01:45.680Z,8.38
2023-10-20T02:02:49.190Z,8.37
2023-10-20T02:03:52.840Z,8.34
2023-10-20T02:04:56.587Z,8.32
2023-10-20T02:06:00.560Z,8.31
2023-10-20T02:07:04.047Z,8.29
2023-10-20T02:08:09.283Z,8.28
2023-10-20T02:09:12.835Z,8.27
2023-10-20T02:10:18.715Z,8.26
2023-10-20T02:11:22.331Z,8.25
2023-10-20T02:12:25.920Z,8.26
2023-10-20T02:13:29.107Z,8.25
2023-10-20T02:14:35.239Z,8.24
2023-10-20T02:15:41.204Z,8.23
2023-10-20T02:16:44.942Z,8.23
2023-10-20T02:17:48.991Z,8.22
2023-10-20T02:18:53.079Z,8.22
2023-10-20T02:19:59.052Z,8.21
2023-10-20T02:21:05.614Z,8.21
2023-10-20T02:22:08.950Z,8.19
2023-10-20T02:23:12.804Z,8.20
2023-10-20T02:24:17.723Z,8.19
2023-10-20T02:25:21.705Z,8.20
2023-10-20T02:26:25.312Z,8.20
2023-10-20T02:27:29.389Z,8.21
2023-10-20T02:28:32.899Z,8.22
2023-10-20T02:29:36.971Z,8.23
2023-10-20T02:30:40.139Z,8.23
2023-10-20T02:31:43.973Z,8.24
2023-10-20T02:32:47.500Z,8.24
2023-10-20T02:33:52.496Z,8.24
2023-10-20T02:34:55.863Z,8.25
2023-10-20T02:35:59.493Z,8.25
2023-10-20T02:37:03.693Z,8.25
2023-10-20T02:38:07.388Z,8.25
2023-10-20T02:39:10.882Z,8.26
2023-10-20T02:40:14.534Z,8.27
2023-10-20T02:41:17.840Z,8.27
2023-10-20T02:42:21.398Z,8.27
2023-10-20T02:43:25.321Z,8.28
2023-10-20T02:44:31.045Z,8.29
2023-10-20T02:45:34.952Z,8.29
2023-10-20T02:46:39.416Z,8.29
2023-10-20T02:47:43.434Z,8.30
2023-10-20T02:48:47.189Z,8.31
2023-10-20T02:49:56.343Z,8.32
2023-10-20T02:51:08.195Z,8.32
2023-10-20T02:52:14.173Z,8.32
2023-10-20T02:53:19.694Z,8.33
2023-10-20T02:54:23.128Z,8.33
2023-10-20T02:55:28.065Z,8.33
2023-10-20T02:56:31.561Z,8.33
2023-10-20T02:57:37.702Z,8.33
2023-10-20T02:58:43.856Z,8.33
2023-10-20T02:59:48.896Z,8.32
2023-10-20T03:00:54.725Z,8.31
2023-10-20T03:01:58.213Z,8.31
2023-10-20T03:03:05.133Z,8.31
2023-10-20T03:04:09.993Z,8.32
2023-10-20T03:05:14.504Z,8.32
2023-10-20T03:06:21.643Z,8.32
2023-10-20T03:07:27.995Z,8.32
2023-10-20T03:08:32.008Z,8.32
2023-10-20T03:09:38.666Z,8.32
2023-10-20T03:10:42.118Z,8.33
2023-10-20T03:11:46.095Z,8.33
2023-10-20T03:12:49.870Z,8.33
2023-10-20T03:13:53.535Z,8.33
2023-10-20T03:14:57.473Z,8.34
2023-10-20T03:16:01.199Z,8.33
2023-10-20T03:17:05.518Z,8.32
2023-10-20T03:18:09.444Z,8.32
2023-10-20T03:19:12.684Z,8.32
2023-10-20T03:20:18.081Z,8.31
2023-10-20T03:21:23.059Z,8.30
2023-10-20T03:22:26.764Z,8.29
2023-10-20T03:23:30.837Z,8.28
2023-10-20T03:24:35.663Z,8.28
2023-10-20T03:25:39.464Z,8.27
2023-10-20T03:26:43.581Z,8.26
2023-10-20T03:27:47.251Z,8.25
2023-10-20T03:28:50.371Z,8.23
2023-10-20T03:29:53.734Z,8.22
2023-10-20T03:30:57.746Z,8.22
2023-10-20T03:32:03.770Z,8.22
2023-10-20T03:33:09.227Z,8.21
2023-10-20T03:34:12.478Z,8.22
2023-10-20T03:35:16.934Z,8.21
2023-10-20T03:36:24.044Z,8.21
2023-10-20T03:37:28.097Z,8.19
2023-10-20T03:38:31.458Z,8.19
2023-10-20T03:39:35.484Z,8.18
2023-10-20T03:40:40.671Z,8.18
2023-10-20T03:41:44.228Z,8.17
2023-10-20T03:42:48.946Z,8.17
2023-10-20T03:43:55.070Z,8.16
2023-10-20T03:44:58.623Z,8.16
2023-10-20T03:46:03.853Z,8.16
2023-10-20T03:47:08.839Z,8.16
2023-10-20T03:48:12.323Z,8.16
2023-10-20T03:49:18.929Z,8.17
2023-10-20T03:50:22.860Z,8.17
2023-10-20T03:51:27.776Z,8.18
2023-10-20T03:52:30.920Z,8.18
2023-10-20T03:53:54.893Z,8.17
2023-10-20T03:54:58.950Z,8.16
2023-10-20T03:56:03.621Z,8.16
2023-10-20T03:57:07.439Z,8.17
2023-10-20T03:58:13.173Z,8.17
2023-10-20T03:59:17.135Z,8.16
2023-10-20T04:00:30.930Z,8.16
2023-10-20T04:01:34.468Z,8.17
2023-10-20T04:02:37.983Z,8.15
2023-10-20T04:03:43.826Z,8.15
2023-10-20T04:04:47.266Z,8.14
2023-10-20T04:05:51.190Z,8.13
2023-10-20T04:06:54.905Z,8.12
2023-10-20T04:07:59.424Z,8.09
2023-10-20T04:09:09.310Z,8.08
2023-10-20T04:10:12.973Z,8.07
2023-10-20T04:11:16.301Z,8.06
2023-10-20T04:12:20.119Z,8.04
2023-10-20T04:13:27.736Z,8.03
2023-10-20T04:14:30.918Z,8.01
2023-10-20T04:15:37.373Z,8.00
2023-10-20T04:16:42.228Z,7.98
2023-10-20T04:17:53.085Z,7.96
2023-10-20T04:18:59.841Z,7.93
2023-10-20T04:20:05.102Z,7.91
2023-10-20T04:21:12.128Z,7.88
2023-10-20T04:22:16.742Z,7.85
2023-10-20T04:23:21.223Z,7.84
2023-10-20T04:24:24.926Z,7.82
2023-10-20T04:25:29.688Z,7.81
2023-10-20T04:26:35.759Z,7.80
2023-10-20T04:27:53.201Z,7.78
2023-10-20T04:29:11.920Z,7.78
2023-10-20T04:30:35.591Z,7.77
2023-10-20T04:31:57.275Z,7.74
2023-10-20T04:33:19.729Z,7.74
2023-10-20T04:34:42.288Z,7.72
2023-10-20T04:36:04.740Z,7.71
2023-10-20T04:37:26.925Z,7.70
2023-10-20T04:38:48.912Z,7.69
2023-10-20T04:40:10.922Z,7.68
2023-10-20T04:41:33.675Z,7.68
2023-10-20T04:42:40.895Z,7.67
2023-10-20T04:44:04.330Z,7.68
2023-10-20T04:45:22.248Z,7.67
2023-10-20T04:46:32.013Z,7.67
2023-10-20T04:47:35.425Z,7.67
2023-10-20T04:48:57.447Z,7.67
2023-10-20T04:50:16.446Z,7.69
2023-10-20T04:51:40.076Z,7.70
2023-10-20T04:52:56.163Z,7.71
2023-10-20T04:54:11.268Z,7.72
2023-10-20T04:55:27.364Z,7.74
2023-10-20T04:56:38.782Z,7.76
2023-10-20T04:58:02.798Z,7.78
2023-10-20T04:59:11.009Z,7.81
2023-10-20T05:00:36.078Z,7.83
2023-10-20T05:01:39.735Z,7.87
2023-10-20T05:03:06.931Z,7.89
2023-10-20T05:04:19.325Z,7.91
2023-10-20T05:05:26.857Z,7.92
2023-10-20T05:06:41.593Z,7.95
2023-10-20T05:07:50.996Z,7.97
2023-10-20T05:08:55.056Z,8.00
2023-10-20T05:10:00.534Z,8.03
2023-10-20T05:11:05.620Z,8.07
2023-10-20T05:12:10.103Z,8.11
2023-10-20T05:13:13.493Z,8.16
2023-10-20T05:14:18.185Z,8.19
2023-10-20T05:15:22.606Z,8.23
2023-10-20T05:16:29.403Z,8.26
2023-10-20T05:17:36.080Z,8.28
2023-10-20T05:18:40.445Z,8.31
2023-10-20T05:19:44.428Z,8.33
2023-10-20T05:20:47.860Z,8.35
2023-10-20T05:21:52.224Z,8.36
2023-10-20T05:22:57.055Z,8.39
2023-10-20T05:24:04.273Z,8.40
2023-10-20T05:25:12.601Z,8.43
2023-10-20T05:26:17.277Z,8.47
2023-10-20T05:27:20.486Z,8.51
2023-10-20T05:28:25.349Z,8.55
2023-10-20T05:29:29.240Z,8.58
2023-10-20T05:30:33.833Z,8.62
2023-10-20T05:31:37.352Z,8.65
2023-10-20T05:32:40.983Z,8.69
2023-10-20T05:33:46.725Z,8.75
2023-10-20T05:34:55.588Z,8.81
2023-10-20T05:36:02.571Z,8.87
2023-10-20T05:37:06.090Z,8.93
2023-10-20T05:38:10.358Z,8.98
2023-10-20T05:39:14.512Z,9.02
2023-10-20T05:40:18.072Z,9.06
2023-10-20T05:41:22.833Z,9.10
2023-10-20T05:42:26.756Z,9.14
2023-10-20T05:43:31.200Z,9.17
2023-10-20T05:44:34.885Z,9.20
2023-10-20T05:45:40.914Z,9.23
2023-10-20T05:46:45.108Z,9.26
2023-10-20T05:47:50.365Z,9.30
2023-10-20T05:48:55.169Z,9.34
2023-10-20T05:50:01.653Z,9.37
2023-10-20T05:51:05.942Z,9.42
2023-10-20T05:52:09.747Z,9.43
2023-10-20T05:53:13.620Z,9.43
2023-10-20T05:54:17.626Z,9.43
2023-10-20T05:55:21.525Z,9.40
2023-10-20T05:56:24.899Z,9.36
2023-10-20T05:57:29.273Z,9.34
2023-10-20T05:58:33.873Z,9.32
2023-10-20T05:59:38.811Z,9.32
2023-10-20T06:01:01.830Z,9.33
2023-10-20T06:02:08.752Z,9.34
2023-10-20T06:03:12.336Z,9.36
2023-10-20T06:04:15.750Z,9.38
2023-10-20T06:05:19.940Z,9.42
2023-10-20T06:06:23.480Z,9.48
2023-10-20T06:07:27.919Z,9.53
2023-10-20T06:08:31.755Z,9.57
2023-10-20T06:09:35.650Z,9.63
2023-10-20T06:10:39.419Z,9.69
2023-10-20T06:11:42.889Z,9.76
2023-10-20T06:12:46.122Z,9.82
2023-10-20T06:13:50.061Z,9.88
2023-10-20T06:14:53.326Z,9.95
2023-10-20T06:15:59.490Z,10.01
2023-10-20T06:17:03.464Z,10.08
2023-10-20T06:18:11.747Z,10.15
2023-10-20T06:19:17.401Z,10.24
2023-10-20T06:20:20.891Z,10.32
2023-10-20T06:21:24.463Z,10.40
2023-10-20T06:22:28.166Z,10.48
2023-10-20T06:23:32.105Z,10.55
2023-10-20T06:24:35.670Z,10.63
2023-10-20T06:25:42.876Z,10.71
2023-10-20T06:26:49.197Z,10.79
2023-10-20T06:27:52.993Z,10.86
2023-10-20T06:28:56.589Z,10.92
2023-10-20T06:30:15.802Z,10.99
2023-10-20T06:31:32.023Z,11.08
2023-10-20T06:32:46.327Z,11.17
2023-10-20T06:33:58.868Z,11.26
2023-10-20T06:35:03.232Z,11.36
2023-10-20T06:36:17.150Z,11.44
2023-10-20T06:37:36.497Z,11.54
2023-10-20T06:38:43.018Z,11.63
2023-10-20T06:39:46.699Z,11.72
2023-10-20T06:40:50.094Z,11.78
2023-10-20T06:41:53.875Z,11.84
2023-10-20T06:42:57.457Z,11.91
2023-10-20T06:44:01.219Z,12.01
2023-10-20T06:45:07.061Z,12.09
2023-10-20T06:46:10.733Z,12.16
2023-10-20T06:47:14.517Z,12.18
2023-10-20T06:48:18.020Z,12.21
2023-10-20T06:49:21.846Z,12.23
2023-10-20T06:50:25.475Z,12.24
2023-10-20T06:51:30.952Z,12.26
2023-10-20T06:52:35.759Z,12.28
2023-10-20T06:53:39.700Z,12.30
2023-10-20T06:54:43.237Z,12.35
2023-10-20T06:56:09.958Z,12.38
2023-10-20T06:57:15.953Z,12.41
2023-10-20T06:58:20.392Z,12.43
2023-10-20T06:59:26.619Z,12.47
2023-10-20T07:00:31.373Z,12.52
2023-10-20T07:01:36.181Z,12.57
2023-10-20T07:02:39.794Z,12.65
2023-10-20T07:03:45.570Z,12.76
2023-10-20T07:04:49.864Z,12.87
2023-10-20T07:05:53.420Z,12.98
2023-10-20T07:06:58.555Z,13.11
2023-10-20T07:08:02.313Z,13.24
2023-10-20T07:09:12.580Z,13.34
2023-10-20T07:10:19.261Z,13.47
2023-10-20T07:11:27.515Z,13.60
2023-10-20T07:12:30.660Z,13.74
2023-10-20T07:13:34.298Z,13.86
2023-10-20T07:14:41.303Z,13.99
2023-10-20T07:15:46.019Z,14.11
2023-10-20T07:16:49.736Z,14.23
2023-10-20T07:17:53.452Z,14.32
2023-10-20T07:18:57.398Z,14.39
2023-10-20T07:20:00.884Z,14.46
2023-10-20T07:21:04.835Z,14.55
2023-10-20T07:22:08.547Z,14.63
2023-10-20T07:23:11.669Z,14.70
2023-10-20T07:24:15.613Z,14.77
2023-10-20T07:25:20.086Z,14.83
2023-10-20T07:26:24.928Z,14.87
2023-10-20T07:27:28.444Z,14.91
2023-10-20T07:28:32.676Z,14.92
2023-10-20T07:31:00.660Z,14.86
2023-10-20T07:32:05.565Z,14.81
2023-10-20T07:33:09.149Z,14.77
2023-10-20T07:34:12.527Z,14.75
2023-10-20T07:35:16.513Z,14.74
2023-10-20T07:36:21.497Z,14.71
2023-10-20T07:37:25.093Z,14.69
2023-10-20T07:38:28.566Z,14.67
2023-10-20T07:39:34.336Z,14.65
2023-10-20T07:40:38.224Z,14.64
2023-10-20T07:41:41.611Z,14.64
2023-10-20T07:42:47.401Z,14.65
2023-10-20T07:43:51.524Z,14.68
2023-10-20T07:44:56.000Z,14.72
2023-10-20T07:45:59.379Z,14.77
2023-10-20T07:47:03.142Z,14.83
2023-10-20T07:48:11.884Z,14.92
2023-10-20T07:49:16.725Z,15.06
2023-10-20T07:50:20.358Z,15.21
2023-10-20T07:51:24.793Z,15.34
2023-10-20T07:52:29.414Z,15.48
2023-10-20T07:53:32.941Z,15.62
2023-10-20T07:54:37.376Z,15.76
2023-10-20T07:55:41.462Z,15.91
2023-10-20T07:56:44.956Z,16.02
2023-10-20T07:57:48.394Z,16.09
2023-10-20T07:58:52.816Z,16.17
2023-10-20T07:59:56.819Z,16.24
2023-10-20T08:01:01.228Z,16.32
2023-10-20T08:02:06.135Z,16.36
2023-10-20T08:03:12.125Z,16.41
2023-10-20T08:04:18.658Z,16.43
2023-10-20T08:05:25.597Z,16.46
2023-10-20T08:06:29.570Z,16.47
2023-10-20T08:07:33.205Z,16.48
2023-10-20T08:08:36.631Z,16.48
2023-10-20T08:09:41.280Z,16.52
2023-10-20T08:10:44.878Z,16.55
2023-10-20T08:11:48.136Z,16.61
2023-10-20T08:12:51.542Z,16.68
2023-10-20T08:13:56.576Z,16.78
2023-10-20T08:15:00.212Z,16.88
2023-10-20T08:16:08.412Z,17.00
2023-10-20T08:17:13.164Z,17.11
2023-10-20T08:18:17.086Z,17.22
2023-10-20T08:19:20.841Z,17.30
2023-10-20T08:20:24.424Z,17.39
2023-10-20T08:21:30.451Z,17.46
2023-10-20T08:22:33.769Z,17.54
2023-10-20T08:23:38.086Z,17.58
2023-10-20T08:24:42.061Z,17.65
2023-10-20T08:25:45.679Z,17.70
2023-10-20T08:26:50.277Z,17.76
2023-10-20T08:27:54.883Z,17.84
2023-10-20T08:28:58.298Z,17.92
2023-10-20T08:30:01.696Z,18.01
2023-10-20T08:31:10.994Z,18.10
2023-10-20T08:32:14.408Z,18.14
2023-10-20T08:33:18.527Z,18.19
2023-10-20T08:34:22.131Z,18.26
2023-10-20T08:35:26.617Z,18.31
2023-10-20T08:36:30.159Z,18.36
2023-10-20T08:37:33.486Z,18.41
2023-10-20T08:38:36.805Z,18.47
2023-10-20T08:39:40.926Z,18.49
2023-10-20T08:41:07.864Z,18.49
2023-10-20T08:42:17.717Z,18.48
2023-10-20T08:43:22.609Z,18.49
2023-10-20T08:44:27.525Z,18.51
2023-10-20T08:45:34.746Z,18.53
2023-10-20T08:46:40.809Z,18.59
2023-10-20T08:47:45.273Z,18.64
2023-10-20T08:48:49.494Z,18.69
2023-10-20T08:49:53.146Z,18.76
2023-10-20T08:51:00.245Z,18.83
2023-10-20T08:52:10.836Z,18.88
2023-10-20T08:53:15.238Z,18.94
2023-10-20T08:55:24.156Z,19.10
2023-10-20T08:56:28.391Z,19.18
2023-10-20T08:57:30.955Z,19.24
2023-10-20T08:58:35.909Z,19.27
2023-10-20T08:59:38.373Z,19.27
2023-10-20T09:00:51.249Z,19.26
2023-10-20T09:01:58.138Z,19.26
2023-10-20T09:03:00.711Z,19.27
2023-10-20T09:04:06.526Z,19.30
2023-10-20T09:05:10.964Z,19.35
2023-10-20T09:06:16.902Z,19.40
2023-10-20T09:07:22.285Z,19.45
2023-10-20T09:08:28.861Z,19.51
2023-10-20T09:09:31.542Z,19.57
2023-10-20T09:10:33.797Z,19.65
2023-10-20T09:11:36.081Z,19.75
2023-10-20T09:12:38.755Z,19.83
2023-10-20T09:13:44.405Z,19.92
2023-10-20T09:14:48.965Z,20.02
2023-10-20T09:15:51.872Z,20.13
2023-10-20T09:16:59.075Z,20.25
2023-10-20T09:18:03.129Z,20.39
2023-10-20T09:19:10.137Z,20.51
2023-10-20T09:20:16.938Z,20.67
2023-10-20T09:21:20.490Z,20.83
2023-10-20T09:22:29.871Z,21.00
2023-10-20T09:23:37.897Z,21.19
2023-10-20T09:24:42.168Z,21.38
2023-10-20T09:25:44.897Z,21.56
2023-10-20T09:26:47.411Z,21.75
2023-10-20T09:27:50.118Z,21.96
2023-10-20T09:28:54.884Z,22.17
2023-10-20T09:30:02.015Z,22.40
2023-10-20T09:31:05.177Z,22.60
2023-10-20T09:32:08.151Z,22.78
2023-10-20T09:33:11.940Z,22.97
2023-10-20T09:34:15.300Z,23.14
2023-10-20T09:35:17.870Z,23.31
2023-10-20T09:36:25.094Z,23.46
2023-10-20T09:37:29.630Z,23.63
2023-10-20T09:38:33.736Z,23.78
2023-10-20T09:39:38.892Z,23.91
2023-10-20T09:40:42.273Z,24.05
2023-10-20T09:41:49.253Z,24.17
2023-10-20T09:43:25.057Z,24.32
2023-10-20T09:44:39.659Z,24.50
2023-10-20T09:45:44.243Z,24.66
2023-10-20T09:46:54.830Z,24.82
2023-10-20T09:48:01.280Z,25.00
2023-10-20T09:49:09.661Z,25.16
2023-10-20T09:50:18.985Z,25.30
2023-10-20T09:51:22.083Z,25.44
2023-10-20T09:52:24.934Z,25.57
2023-10-20T09:53:27.680Z,25.68
2023-10-20T09:54:32.355Z,25.77
2023-10-20T09:55:34.798Z,25.86
2023-10-20T09:56:38.715Z,25.93
2023-10-20T09:57:41.282Z,26.02
2023-10-20T09:58:43.753Z,26.10
2023-10-20T09:59:51.328Z,26.23
2023-10-20T10:00:55.040Z,26.38
2023-10-20T10:01:58.608Z,26.49
2023-10-20T10:03:01.371Z,26.59
2023-10-20T10:04:05.610Z,26.65
2023-10-20T10:05:10.617Z,26.68
2023-10-20T10:06:14.689Z,26.69
2023-10-20T10:07:26.540Z,26.72
2023-10-20T10:08:31.131Z,26.76
2023-10-20T10:09:37.569Z,26.75
2023-10-20T10:10:39.961Z,26.73
2023-10-20T10:11:44.985Z,26.73
2023-10-20T10:13:00.656Z,26.68
2023-10-20T10:14:03.201Z,26.58
2023-10-20T10:15:09.317Z,26.52
2023-10-20T10:16:15.627Z,26.48
2023-10-20T10:17:23.329Z,26.41
2023-10-20T10:18:30.649Z,26.35
2023-10-20T10:19:33.810Z,26.23
2023-10-20T10:20:41.996Z,26.11
2023-10-20T10:21:49.377Z,26.01
2023-10-20T10:23:00.845Z,25.93
2023-10-20T10:24:17.678Z,25.91
2023-10-20T10:25:33.733Z,25.92
2023-10-20T10:26:44.277Z,25.92
2023-10-20T10:27:47.292Z,25.91
2023-10-20T10:28:50.292Z,25.93
2023-10-20T10:29:55.128Z,25.97
2023-10-20T10:30:57.883Z,25.99
2023-10-20T10:32:09.421Z,26.05
2023-10-20T10:33:13.041Z,26.09
2023-10-20T10:34:15.547Z,26.12
2023-10-20T10:35:18.370Z,26.15
2023-10-20T10:36:21.151Z,26.19
2023-10-20T10:37:33.935Z,26.18
2023-10-20T10:38:47.235Z,26.17
2023-10-20T10:39:49.731Z,26.12
2023-10-20T10:40:52.030Z,26.07
2023-10-20T10:41:54.905Z,26.04
2023-10-20T10:42:59.309Z,26.05
2023-10-20T10:44:03.880Z,26.08
2023-10-20T10:45:15.012Z,26.12
2023-10-20T10:46:17.780Z,26.09
2023-10-20T10:47:20.551Z,26.03
2023-10-20T10:48:26.642Z,25.99
2023-10-20T10:49:29.235Z,25.91
2023-10-20T10:50:33.362Z,25.87
2023-10-20T10:51:42.028Z,25.84
2023-10-20T10:52:45.145Z,25.79
2023-10-20T10:53:47.893Z,25.73
2023-10-20T10:54:54.132Z,25.72
2023-10-20T10:55:56.706Z,25.72
2023-10-20T10:57:01.800Z,25.72
2023-10-20T10:58:08.141Z,25.71
2023-10-20T10:59:13.449Z,25.69
2023-10-20T11:00:17.023Z,25.70
2023-10-20T11:01:19.847Z,25.72
2023-10-20T11:02:22.784Z,25.73
2023-10-20T11:03:26.357Z,25.77
2023-10-20T11:04:29.800Z,25.80
2023-10-20T11:05:33.164Z,25.79
2023-10-20T11:06:38.999Z,25.82
2023-10-20T11:07:41.591Z,25.82
2023-10-20T11:08:46.485Z,25.80
2023-10-20T11:09:49.132Z,25.82
2023-10-20T11:10:51.782Z,25.81
2023-10-20T11:11:54.209Z,25.85
2023-10-20T11:12:57.971Z,25.86
2023-10-20T11:14:00.965Z,25.86
2023-10-20T11:15:06.780Z,25.86
2023-10-20T11:16:10.356Z,25.90
2023-10-20T11:17:15.520Z,25.96
2023-10-20T11:18:20.985Z,26.00
2023-10-20T11:19:23.789Z,26.03
2023-10-20T11:20:26.443Z,26.02
2023-10-20T11:21:31.692Z,25.98
2023-10-20T11:22:38.401Z,25.93
2023-10-20T11:23:41.267Z,25.90
2023-10-20T11:24:53.623Z,25.86
2023-10-20T11:25:58.168Z,25.83
2023-10-20T11:27:01.692Z,25.76
2023-10-20T11:28:07.464Z,25.70
2023-10-20T11:29:09.736Z,25.66
2023-10-20T11:30:13.323Z,25.64
2023-10-20T11:31:15.591Z,25.61
2023-10-20T11:32:19.839Z,25.59
2023-10-20T11:33:22.643Z,25.54
2023-10-20T11:34:26.074Z,25.54
2023-10-20T11:35:28.797Z,25.48
2023-10-20T11:36:31.304Z,25.45
2023-10-20T11:37:36.542Z,25.40
2023-10-20T11:38:38.924Z,25.40
2023-10-20T11:39:41.627Z,25.40
2023-10-20T11:40:49.328Z,25.40
2023-10-20T11:41:53.609Z,25.37
2023-10-20T11:42:57.027Z,25.37
2023-10-20T11:43:59.679Z,25.38
2023-10-20T11:45:02.489Z,25.39
2023-10-20T11:46:07.973Z,25.38
2023-10-20T11:47:10.864Z,25.38
2023-10-20T11:48:13.477Z,25.37
2023-10-20T11:49:16.512Z,25.34
2023-10-20T11:50:20.146Z,25.31
2023-10-20T11:51:24.354Z,25.26
2023-10-20T11:52:27.335Z,25.16
2023-10-20T11:53:29.881Z,25.14
2023-10-20T11:54:32.789Z,25.12
2023-10-20T11:55:35.548Z,25.10
2023-10-20T11:56:38.269Z,25.07
2023-10-20T11:57:40.977Z,25.06
2023-10-20T11:58:43.237Z,25.04
2023-10-20T11:59:45.686Z,25.03
2023-10-20T12:00:49.764Z,25.03
2023-10-20T12:01:52.176Z,25.00
2023-10-20T12:02:55.661Z,24.97
2023-10-20T12:04:00.180Z,24.94
2023-10-20T12:05:03.164Z,24.94
2023-10-20T12:06:07.893Z,24.95
2023-10-20T12:07:10.700Z,24.95
2023-10-20T12:08:14.137Z,24.96
2023-10-20T12:09:18.107Z,24.95
2023-10-20T12:10:25.687Z,24.95
2023-10-20T12:11:28.988Z,24.94
2023-10-20T12:12:32.445Z,24.94
2023-10-20T12:13:37.709Z,24.95
2023-10-20T12:14:40.006Z,24.94
2023-10-20T12:15:42.775Z,24.94
2023-10-20T12:16:48.571Z,24.91
2023-10-20T12:17:51.288Z,24.87
2023-10-20T12:18:53.663Z,24.83
2023-10-20T12:19:56.144Z,24.81
2023-10-20T12:20:59.041Z,24.79
2023-10-20T12:22:02.631Z,24.78
2023-10-20T12:23:07.021Z,24.78
2023-10-20T12:24:09.823Z,24.79
2023-10-20T12:25:12.351Z,24.79
2023-10-20T12:26:14.774Z,24.78
2023-10-20T12:27:18.108Z,24.76
2023-10-20T12:28:21.672Z,24.73
2023-10-20T12:29:24.942Z,24.74
2023-10-20T12:30:28.153Z,24.77
2023-10-20T12:31:36.507Z,24.80
2023-10-20T12:32:39.229Z,24.86
2023-10-20T12:33:44.413Z,24.93
2023-10-20T12:34:46.820Z,24.97
2023-10-20T12:35:49.206Z,25.00
2023-10-20T12:36:51.728Z,25.04
2023-10-20T12:37:55.139Z,25.05
2023-10-20T12:38:57.841Z,25.06
2023-10-20T12:40:00.658Z,25.09
2023-10-20T12:41:03.593Z,25.10
2023-10-20T12:42:06.430Z,25.11
2023-10-20T12:43:14.515Z,25.12
2023-10-20T12:44:20.677Z,25.14
2023-10-20T12:45:24.092Z,25.14
2023-10-20T12:46:26.947Z,25.15
2023-10-20T12:47:29.244Z,25.16
2023-10-20T12:48:31.930Z,25.19
2023-10-20T12:49:34.986Z,25.19
2023-10-20T12:50:39.644Z,25.18
2023-10-20T12:51:42.613Z,25.17
2023-10-20T12:52:44.833Z,25.16
2023-10-20T12:53:48.774Z,25.16
2023-10-20T12:54:54.437Z,25.12
2023-10-20T12:55:57.076Z,25.08
2023-10-20T12:57:01.022Z,25.03
2023-10-20T12:58:03.480Z,25.01
2023-10-20T12:59:05.907Z,24.97
2023-10-20T13:00:12.506Z,24.94
2023-10-20T13:01:16.545Z,24.90
2023-10-20T13:02:19.523Z,24.86
2023-10-20T13:03:22.199Z,24.84
2023-10-20T13:04:26.382Z,24.79
2023-10-20T13:05:30.364Z,24.82
2023-10-20T13:06:42.601Z,24.85
2023-10-20T13:07:54.520Z,24.88
2023-10-20T13:08:57.104Z,24.91
2023-10-20T13:09:59.854Z,24.97
2023-10-20T13:11:02.477Z,25.04
2023-10-20T13:12:06.420Z,25.10
2023-10-20T13:13:11.392Z,25.13
2023-10-20T13:14:15.048Z,25.13
2023-10-20T13:15:22.199Z,25.10
2023-10-20T13:16:24.643Z,25.06
2023-10-20T13:17:28.256Z,24.99
2023-10-20T13:18:31.478Z,24.93
2023-10-20T13:19:35.797Z,24.85
2023-10-20T13:20:38.548Z,24.82
2023-10-20T13:21:40.703Z,24.80
2023-10-20T13:22:42.843Z,24.75
2023-10-20T13:23:45.338Z,24.72
2023-10-20T13:24:50.468Z,24.70
2023-10-20T13:25:59.966Z,24.69
2023-10-20T13:27:02.313Z,24.68
2023-10-20T13:28:07.452Z,24.67
2023-10-20T13:29:10.444Z,24.67
2023-10-20T13:30:13.454Z,24.62
2023-10-20T13:31:23.339Z,24.57
2023-10-20T13:32:26.428Z,24.51
2023-10-20T13:33:29.147Z,24.45
2023-10-20T13:34:31.798Z,24.42
2023-10-20T13:35:40.850Z,24.40
2023-10-20T13:36:45.229Z,24.38
2023-10-20T13:37:47.595Z,24.37
2023-10-20T13:38:50.195Z,24.39
2023-10-20T13:39:54.375Z,24.39
2023-10-20T13:40:59.342Z,24.40
2023-10-20T13:42:05.940Z,24.42
2023-10-20T13:43:08.634Z,24.43
2023-10-20T13:44:11.151Z,24.45
2023-10-20T13:45:13.680Z,24.44
2023-10-20T13:46:17.011Z,24.42
2023-10-20T13:47:19.641Z,24.40
2023-10-20T13:48:22.816Z,24.38
2023-10-20T13:49:26.014Z,24.37
2023-10-20T13:50:28.428Z,24.37
2023-10-20T13:51:30.989Z,24.36
2023-10-20T13:52:33.105Z,24.34
2023-10-20T13:53:36.573Z,24.31
2023-10-20T13:54:39.372Z,24.30
2023-10-20T13:55:42.575Z,24.26
2023-10-20T13:56:44.948Z,24.23
2023-10-20T13:57:50.016Z,24.18
2023-10-20T13:58:52.633Z,24.12
2023-10-20T13:59:55.702Z,24.05
2023-10-20T14:00:58.796Z,23.99
2023-10-20T14:02:01.695Z,23.94
2023-10-20T14:03:06.626Z,23.89
2023-10-20T14:04:09.918Z,23.84
2023-10-20T14:05:16.749Z,23.80
2023-10-20T14:06:19.397Z,23.76
2023-10-20T14:07:22.253Z,23.73
2023-10-20T14:08:26.325Z,23.70
2023-10-20T14:09:28.936Z,23.65
2023-10-20T14:10:31.680Z,23.60
2023-10-20T14:11:34.414Z,23.52
2023-10-20T14:12:37.022Z,23.47
2023-10-20T14:13:39.818Z,23.42
2023-10-20T14:14:43.602Z,23.34